sensor_id;sensor_type;location;lat;lon;timestamp;P1;durP1;ratioP1;P2;durP2;ratioP2
12445;SDS011;6287;50.984;7.022;2023-07-29T00:02:14;0.85;;;0.85;;
12445;SDS011;6287;50.984;7.022;2023-07-29T00:04:40;1.25;;;1.20;;
12445;SDS011;6287;50.984;7.022;2023-07-29T00:07:05;1.55;;;0.82;;
12445;SDS011;6287;50.984;7.022;2023-07-29T00:09:31;1.15;;;1.05;;
12445;SDS011;6287;50.984;7.022;2023-07-29T00:11:57;1.25;;;0.90;;
12445;SDS011;6287;50.984;7.022;2023-07-29T00:14:25;2.30;;;0.95;;
12445;SDS011;6287;50.984;7.022;2023-07-29T00:16:53;1.00;;;1.00;;
12445;SDS011;6287;50.984;7.022;2023-07-29T00:19:20;1.15;;;1.10;;
12445;SDS011;6287;50.984;7.022;2023-07-29T00:21:48;0.88;;;0.85;;
12445;SDS011;6287;50.984;7.022;2023-07-29T00:24:14;1.95;;;1.02;;
12445;SDS011;6287;50.984;7.022;2023-07-29T00:26:39;1.27;;;1.05;;
12445;SDS011;6287;50.984;7.022;2023-07-29T00:29:05;1.20;;;1.10;;
12445;SDS011;6287;50.984;7.022;2023-07-29T00:31:30;1.63;;;1.17;;
12445;SDS011;6287;50.984;7.022;2023-07-29T00:33:56;1.40;;;1.00;;
12445;SDS011;6287;50.984;7.022;2023-07-29T00:36:31;1.10;;;1.10;;
12445;SDS011;6287;50.984;7.022;2023-07-29T00:38:59;1.10;;;1.10;;
12445;SDS011;6287;50.984;7.022;2023-07-29T00:41:25;1.73;;;0.98;;
12445;SDS011;6287;50.984;7.022;2023-07-29T00:43:51;4.45;;;1.50;;
12445;SDS011;6287;50.984;7.022;2023-07-29T00:46:16;1.48;;;1.38;;
12445;SDS011;6287;50.984;7.022;2023-07-29T00:48:44;1.70;;;1.60;;
12445;SDS011;6287;50.984;7.022;2023-07-29T00:51:10;2.85;;;1.67;;
12445;SDS011;6287;50.984;7.022;2023-07-29T00:53:36;1.30;;;1.20;;
12445;SDS011;6287;50.984;7.022;2023-07-29T00:56:02;1.52;;;1.40;;
12445;SDS011;6287;50.984;7.022;2023-07-29T00:58:28;1.38;;;1.30;;
12445;SDS011;6287;50.984;7.022;2023-07-29T01:00:54;2.22;;;1.80;;
12445;SDS011;6287;50.984;7.022;2023-07-29T01:03:27;1.67;;;1.48;;
12445;SDS011;6287;50.984;7.022;2023-07-29T01:05:59;1.70;;;1.60;;
12445;SDS011;6287;50.984;7.022;2023-07-29T01:08:37;4.53;;;1.38;;
12445;SDS011;6287;50.984;7.022;2023-07-29T01:14:00;2.70;;;1.40;;
12445;SDS011;6287;50.984;7.022;2023-07-29T01:16:42;1.48;;;1.33;;
12445;SDS011;6287;50.984;7.022;2023-07-29T01:19:14;1.58;;;1.48;;
12445;SDS011;6287;50.984;7.022;2023-07-29T01:21:59;1.42;;;1.33;;
12445;SDS011;6287;50.984;7.022;2023-07-29T01:24:27;1.08;;;1.00;;
12445;SDS011;6287;50.984;7.022;2023-07-29T01:26:53;1.50;;;1.40;;
12445;SDS011;6287;50.984;7.022;2023-07-29T01:29:19;1.90;;;1.60;;
12445;SDS011;6287;50.984;7.022;2023-07-29T01:31:44;1.70;;;1.60;;
12445;SDS011;6287;50.984;7.022;2023-07-29T01:34:17;2.53;;;1.40;;
12445;SDS011;6287;50.984;7.022;2023-07-29T01:36:51;1.40;;;1.30;;
12445;SDS011;6287;50.984;7.022;2023-07-29T01:39:22;2.10;;;1.45;;
12445;SDS011;6287;50.984;7.022;2023-07-29T01:41:52;1.20;;;1.20;;
12445;SDS011;6287;50.984;7.022;2023-07-29T01:44:18;1.70;;;1.20;;
12445;SDS011;6287;50.984;7.022;2023-07-29T01:46:46;1.63;;;1.38;;
12445;SDS011;6287;50.984;7.022;2023-07-29T01:49:17;1.48;;;1.48;;
12445;SDS011;6287;50.984;7.022;2023-07-29T01:51:42;1.58;;;1.40;;
12445;SDS011;6287;50.984;7.022;2023-07-29T01:54:08;2.80;;;1.45;;
12445;SDS011;6287;50.984;7.022;2023-07-29T01:56:36;1.52;;;1.40;;
12445;SDS011;6287;50.984;7.022;2023-07-29T01:59:02;2.65;;;1.80;;
12445;SDS011;6287;50.984;7.022;2023-07-29T02:01:27;3.60;;;1.77;;
12445;SDS011;6287;50.984;7.022;2023-07-29T02:03:56;1.50;;;1.40;;
12445;SDS011;6287;50.984;7.022;2023-07-29T02:06:21;1.52;;;1.42;;
12445;SDS011;6287;50.984;7.022;2023-07-29T02:08:52;2.22;;;2.00;;
12445;SDS011;6287;50.984;7.022;2023-07-29T02:11:20;1.75;;;1.60;;
12445;SDS011;6287;50.984;7.022;2023-07-29T02:13:52;4.68;;;2.15;;
12445;SDS011;6287;50.984;7.022;2023-07-29T02:16:23;1.85;;;1.63;;
12445;SDS011;6287;50.984;7.022;2023-07-29T02:18:51;1.75;;;1.65;;
12445;SDS011;6287;50.984;7.022;2023-07-29T02:21:17;1.85;;;1.70;;
12445;SDS011;6287;50.984;7.022;2023-07-29T02:23:42;3.10;;;1.75;;
12445;SDS011;6287;50.984;7.022;2023-07-29T02:26:08;2.20;;;2.00;;
12445;SDS011;6287;50.984;7.022;2023-07-29T02:28:33;3.15;;;1.75;;
12445;SDS011;6287;50.984;7.022;2023-07-29T02:31:13;2.00;;;1.90;;
12445;SDS011;6287;50.984;7.022;2023-07-29T02:33:44;1.83;;;1.73;;
12445;SDS011;6287;50.984;7.022;2023-07-29T02:36:11;3.10;;;1.88;;
12445;SDS011;6287;50.984;7.022;2023-07-29T02:38:37;2.42;;;1.73;;
12445;SDS011;6287;50.984;7.022;2023-07-29T02:41:03;2.25;;;1.80;;
12445;SDS011;6287;50.984;7.022;2023-07-29T02:43:29;1.80;;;1.70;;
12445;SDS011;6287;50.984;7.022;2023-07-29T02:45:54;2.22;;;1.90;;
12445;SDS011;6287;50.984;7.022;2023-07-29T02:48:22;1.67;;;1.58;;
12445;SDS011;6287;50.984;7.022;2023-07-29T02:50:48;1.50;;;1.50;;
12445;SDS011;6287;50.984;7.022;2023-07-29T02:53:13;1.80;;;1.70;;
12445;SDS011;6287;50.984;7.022;2023-07-29T02:55:41;1.88;;;1.73;;
12445;SDS011;6287;50.984;7.022;2023-07-29T02:58:07;1.75;;;1.38;;
12445;SDS011;6287;50.984;7.022;2023-07-29T03:00:33;1.95;;;1.52;;
12445;SDS011;6287;50.984;7.022;2023-07-29T03:02:59;1.58;;;1.48;;
12445;SDS011;6287;50.984;7.022;2023-07-29T03:05:27;1.65;;;1.55;;
12445;SDS011;6287;50.984;7.022;2023-07-29T03:07:57;1.40;;;1.30;;
12445;SDS011;6287;50.984;7.022;2023-07-29T03:10:25;2.58;;;1.63;;
12445;SDS011;6287;50.984;7.022;2023-07-29T03:12:53;2.88;;;1.70;;
12445;SDS011;6287;50.984;7.022;2023-07-29T03:15:22;2.13;;;1.20;;
12445;SDS011;6287;50.984;7.022;2023-07-29T03:17:49;1.40;;;1.30;;
12445;SDS011;6287;50.984;7.022;2023-07-29T03:20:19;1.83;;;1.02;;
12445;SDS011;6287;50.984;7.022;2023-07-29T03:22:47;2.35;;;1.13;;
12445;SDS011;6287;50.984;7.022;2023-07-29T03:25:13;1.40;;;1.05;;
12445;SDS011;6287;50.984;7.022;2023-07-29T03:27:39;1.55;;;1.40;;
12445;SDS011;6287;50.984;7.022;2023-07-29T03:30:09;2.15;;;1.95;;
12445;SDS011;6287;50.984;7.022;2023-07-29T03:32:39;1.67;;;1.25;;
12445;SDS011;6287;50.984;7.022;2023-07-29T03:35:08;2.47;;;1.23;;
12445;SDS011;6287;50.984;7.022;2023-07-29T03:37:33;1.60;;;1.10;;
12445;SDS011;6287;50.984;7.022;2023-07-29T03:40:02;1.73;;;1.02;;
12445;SDS011;6287;50.984;7.022;2023-07-29T03:42:28;1.10;;;1.00;;
12445;SDS011;6287;50.984;7.022;2023-07-29T03:44:55;0.90;;;0.90;;
12445;SDS011;6287;50.984;7.022;2023-07-29T03:47:24;1.08;;;0.93;;
12445;SDS011;6287;50.984;7.022;2023-07-29T03:49:49;2.13;;;1.08;;
12445;SDS011;6287;50.984;7.022;2023-07-29T03:52:15;2.83;;;1.20;;
12445;SDS011;6287;50.984;7.022;2023-07-29T03:54:45;1.27;;;1.02;;
12445;SDS011;6287;50.984;7.022;2023-07-29T03:57:13;1.58;;;1.10;;
12445;SDS011;6287;50.984;7.022;2023-07-29T03:59:38;2.08;;;1.17;;
12445;SDS011;6287;50.984;7.022;2023-07-29T04:02:08;1.85;;;1.40;;
12445;SDS011;6287;50.984;7.022;2023-07-29T04:04:41;1.00;;;1.00;;
12445;SDS011;6287;50.984;7.022;2023-07-29T04:07:09;1.42;;;1.20;;
12445;SDS011;6287;50.984;7.022;2023-07-29T04:09:34;1.15;;;1.02;;
12445;SDS011;6287;50.984;7.022;2023-07-29T04:12:02;1.27;;;1.17;;
12445;SDS011;6287;50.984;7.022;2023-07-29T04:14:30;2.03;;;1.20;;
12445;SDS011;6287;50.984;7.022;2023-07-29T04:16:56;1.65;;;1.55;;
12445;SDS011;6287;50.984;7.022;2023-07-29T04:19:23;1.92;;;1.27;;
12445;SDS011;6287;50.984;7.022;2023-07-29T04:21:49;1.15;;;1.05;;
12445;SDS011;6287;50.984;7.022;2023-07-29T04:24:19;1.15;;;1.05;;
12445;SDS011;6287;50.984;7.022;2023-07-29T04:26:48;2.03;;;1.13;;
12445;SDS011;6287;50.984;7.022;2023-07-29T04:29:16;1.23;;;1.15;;
12445;SDS011;6287;50.984;7.022;2023-07-29T04:31:45;1.33;;;1.23;;
12445;SDS011;6287;50.984;7.022;2023-07-29T04:34:11;2.65;;;1.73;;
12445;SDS011;6287;50.984;7.022;2023-07-29T04:36:39;1.52;;;1.05;;
12445;SDS011;6287;50.984;7.022;2023-07-29T04:39:09;2.28;;;1.10;;
12445;SDS011;6287;50.984;7.022;2023-07-29T04:41:37;1.40;;;1.30;;
12445;SDS011;6287;50.984;7.022;2023-07-29T04:44:02;1.00;;;1.00;;
12445;SDS011;6287;50.984;7.022;2023-07-29T04:46:28;1.52;;;1.40;;
12445;SDS011;6287;50.984;7.022;2023-07-29T04:48:56;1.08;;;1.08;;
12445;SDS011;6287;50.984;7.022;2023-07-29T04:51:23;1.30;;;1.20;;
12445;SDS011;6287;50.984;7.022;2023-07-29T04:53:48;1.10;;;1.10;;
12445;SDS011;6287;50.984;7.022;2023-07-29T04:56:14;1.52;;;1.33;;
12445;SDS011;6287;50.984;7.022;2023-07-29T04:58:39;2.65;;;1.60;;
12445;SDS011;6287;50.984;7.022;2023-07-29T05:01:05;1.55;;;1.45;;
12445;SDS011;6287;50.984;7.022;2023-07-29T05:03:34;1.73;;;1.58;;
12445;SDS011;6287;50.984;7.022;2023-07-29T05:06:01;1.83;;;1.73;;
12445;SDS011;6287;50.984;7.022;2023-07-29T05:08:27;1.77;;;1.67;;
12445;SDS011;6287;50.984;7.022;2023-07-29T05:10:55;1.88;;;1.60;;
12445;SDS011;6287;50.984;7.022;2023-07-29T05:13:22;2.20;;;1.50;;
12445;SDS011;6287;50.984;7.022;2023-07-29T05:15:48;1.65;;;1.55;;
12445;SDS011;6287;50.984;7.022;2023-07-29T05:18:15;2.15;;;1.90;;
12445;SDS011;6287;50.984;7.022;2023-07-29T05:20:43;1.58;;;1.48;;
12445;SDS011;6287;50.984;7.022;2023-07-29T05:23:09;1.80;;;1.70;;
12445;SDS011;6287;50.984;7.022;2023-07-29T05:25:35;1.75;;;1.65;;
12445;SDS011;6287;50.984;7.022;2023-07-29T05:28:01;3.22;;;2.00;;
12445;SDS011;6287;50.984;7.022;2023-07-29T05:30:29;1.98;;;1.88;;
12445;SDS011;6287;50.984;7.022;2023-07-29T05:33:02;3.40;;;1.65;;
12445;SDS011;6287;50.984;7.022;2023-07-29T05:35:31;1.95;;;1.60;;
12445;SDS011;6287;50.984;7.022;2023-07-29T05:37:56;2.42;;;2.08;;
12445;SDS011;6287;50.984;7.022;2023-07-29T05:40:25;2.55;;;2.30;;
12445;SDS011;6287;50.984;7.022;2023-07-29T05:42:50;2.25;;;2.10;;
12445;SDS011;6287;50.984;7.022;2023-07-29T05:45:16;2.50;;;2.30;;
12445;SDS011;6287;50.984;7.022;2023-07-29T05:47:46;3.20;;;2.45;;
12445;SDS011;6287;50.984;7.022;2023-07-29T05:50:12;2.88;;;2.40;;
12445;SDS011;6287;50.984;7.022;2023-07-29T05:52:38;2.33;;;2.10;;
12445;SDS011;6287;50.984;7.022;2023-07-29T05:55:03;3.10;;;2.17;;
12445;SDS011;6287;50.984;7.022;2023-07-29T05:57:29;2.22;;;2.00;;
12445;SDS011;6287;50.984;7.022;2023-07-29T05:59:55;2.45;;;2.20;;
12445;SDS011;6287;50.984;7.022;2023-07-29T06:02:20;4.47;;;1.80;;
12445;SDS011;6287;50.984;7.022;2023-07-29T06:04:50;2.83;;;2.10;;
12445;SDS011;6287;50.984;7.022;2023-07-29T06:07:16;2.22;;;1.92;;
12445;SDS011;6287;50.984;7.022;2023-07-29T06:09:42;2.30;;;2.20;;
12445;SDS011;6287;50.984;7.022;2023-07-29T06:12:10;3.47;;;2.00;;
12445;SDS011;6287;50.984;7.022;2023-07-29T06:14:37;2.08;;;1.90;;
12445;SDS011;6287;50.984;7.022;2023-07-29T06:17:03;2.30;;;2.08;;
12445;SDS011;6287;50.984;7.022;2023-07-29T06:19:32;2.72;;;1.63;;
12445;SDS011;6287;50.984;7.022;2023-07-29T06:21:57;1.85;;;1.60;;
12445;SDS011;6287;50.984;7.022;2023-07-29T06:24:23;2.13;;;1.90;;
12445;SDS011;6287;50.984;7.022;2023-07-29T06:26:49;1.50;;;1.40;;
12445;SDS011;6287;50.984;7.022;2023-07-29T06:29:14;3.80;;;1.80;;
12445;SDS011;6287;50.984;7.022;2023-07-29T06:31:40;1.50;;;1.40;;
12445;SDS011;6287;50.984;7.022;2023-07-29T06:34:07;2.75;;;1.50;;
12445;SDS011;6287;50.984;7.022;2023-07-29T06:36:33;2.60;;;1.50;;
12445;SDS011;6287;50.984;7.022;2023-07-29T06:38:59;1.20;;;1.10;;
12445;SDS011;6287;50.984;7.022;2023-07-29T06:41:27;0.90;;;0.90;;
12445;SDS011;6287;50.984;7.022;2023-07-29T06:43:55;1.20;;;1.00;;
12445;SDS011;6287;50.984;7.022;2023-07-29T06:46:21;1.77;;;1.30;;
12445;SDS011;6287;50.984;7.022;2023-07-29T06:48:46;1.23;;;1.13;;
12445;SDS011;6287;50.984;7.022;2023-07-29T06:51:16;1.20;;;1.10;;
12445;SDS011;6287;50.984;7.022;2023-07-29T06:53:42;2.70;;;1.27;;
12445;SDS011;6287;50.984;7.022;2023-07-29T06:56:10;1.17;;;1.17;;
12445;SDS011;6287;50.984;7.022;2023-07-29T06:58:35;1.20;;;1.10;;
12445;SDS011;6287;50.984;7.022;2023-07-29T07:01:03;1.98;;;1.30;;
12445;SDS011;6287;50.984;7.022;2023-07-29T07:03:29;5.05;;;1.27;;
12445;SDS011;6287;50.984;7.022;2023-07-29T07:05:54;1.42;;;1.33;;
12445;SDS011;6287;50.984;7.022;2023-07-29T07:08:20;1.30;;;1.15;;
12445;SDS011;6287;50.984;7.022;2023-07-29T07:10:48;1.05;;;0.80;;
12445;SDS011;6287;50.984;7.022;2023-07-29T07:13:17;1.30;;;1.20;;
12445;SDS011;6287;50.984;7.022;2023-07-29T07:15:42;1.08;;;1.08;;
12445;SDS011;6287;50.984;7.022;2023-07-29T07:18:08;1.00;;;1.00;;
12445;SDS011;6287;50.984;7.022;2023-07-29T07:20:34;2.10;;;1.15;;
12445;SDS011;6287;50.984;7.022;2023-07-29T07:23:04;2.67;;;1.20;;
12445;SDS011;6287;50.984;7.022;2023-07-29T07:25:31;0.95;;;0.95;;
12445;SDS011;6287;50.984;7.022;2023-07-29T07:27:58;1.67;;;1.10;;
12445;SDS011;6287;50.984;7.022;2023-07-29T07:30:24;1.05;;;1.05;;
12445;SDS011;6287;50.984;7.022;2023-07-29T07:32:52;1.52;;;1.20;;
12445;SDS011;6287;50.984;7.022;2023-07-29T07:35:20;1.98;;;1.10;;
12445;SDS011;6287;50.984;7.022;2023-07-29T07:37:45;1.17;;;1.00;;
12445;SDS011;6287;50.984;7.022;2023-07-29T07:40:13;1.27;;;1.20;;
12445;SDS011;6287;50.984;7.022;2023-07-29T07:42:41;2.95;;;1.30;;
12445;SDS011;6287;50.984;7.022;2023-07-29T07:45:13;2.70;;;1.30;;
12445;SDS011;6287;50.984;7.022;2023-07-29T07:47:45;1.38;;;1.20;;
12445;SDS011;6287;50.984;7.022;2023-07-29T07:50:13;1.30;;;1.00;;
12445;SDS011;6287;50.984;7.022;2023-07-29T07:52:41;1.30;;;1.20;;
12445;SDS011;6287;50.984;7.022;2023-07-29T07:55:07;1.20;;;1.00;;
12445;SDS011;6287;50.984;7.022;2023-07-29T07:57:33;1.30;;;1.20;;
12445;SDS011;6287;50.984;7.022;2023-07-29T07:59:58;1.45;;;0.80;;
12445;SDS011;6287;50.984;7.022;2023-07-29T08:02:24;1.00;;;0.90;;
12445;SDS011;6287;50.984;7.022;2023-07-29T08:04:50;1.58;;;0.80;;
12445;SDS011;6287;50.984;7.022;2023-07-29T08:07:20;0.73;;;0.60;;
12445;SDS011;6287;50.984;7.022;2023-07-29T08:09:46;0.73;;;0.73;;
12445;SDS011;6287;50.984;7.022;2023-07-29T08:12:12;2.03;;;1.05;;
12445;SDS011;6287;50.984;7.022;2023-07-29T08:14:40;1.42;;;0.88;;
12445;SDS011;6287;50.984;7.022;2023-07-29T08:17:05;1.20;;;0.95;;
12445;SDS011;6287;50.984;7.022;2023-07-29T08:19:34;0.63;;;0.63;;
12445;SDS011;6287;50.984;7.022;2023-07-29T08:22:01;0.80;;;0.80;;
12445;SDS011;6287;50.984;7.022;2023-07-29T08:24:28;0.80;;;0.80;;
12445;SDS011;6287;50.984;7.022;2023-07-29T08:26:53;0.80;;;0.70;;
12445;SDS011;6287;50.984;7.022;2023-07-29T08:29:21;0.85;;;0.82;;
12445;SDS011;6287;50.984;7.022;2023-07-29T08:31:46;1.00;;;0.90;;
12445;SDS011;6287;50.984;7.022;2023-07-29T08:34:12;0.80;;;0.80;;
12445;SDS011;6287;50.984;7.022;2023-07-29T08:36:42;0.80;;;0.80;;
12445;SDS011;6287;50.984;7.022;2023-07-29T08:39:08;0.73;;;0.73;;
12445;SDS011;6287;50.984;7.022;2023-07-29T08:41:45;2.53;;;0.80;;
12445;SDS011;6287;50.984;7.022;2023-07-29T08:44:21;0.60;;;0.60;;
12445;SDS011;6287;50.984;7.022;2023-07-29T08:46:48;1.20;;;0.80;;
12445;SDS011;6287;50.984;7.022;2023-07-29T08:49:16;0.75;;;0.47;;
12445;SDS011;6287;50.984;7.022;2023-07-29T08:51:44;0.80;;;0.80;;
12445;SDS011;6287;50.984;7.022;2023-07-29T08:54:16;0.82;;;0.80;;
12445;SDS011;6287;50.984;7.022;2023-07-29T08:56:42;0.65;;;0.65;;
12445;SDS011;6287;50.984;7.022;2023-07-29T08:59:08;3.58;;;1.20;;
12445;SDS011;6287;50.984;7.022;2023-07-29T09:01:41;1.00;;;0.80;;
12445;SDS011;6287;50.984;7.022;2023-07-29T09:04:09;0.63;;;0.63;;
12445;SDS011;6287;50.984;7.022;2023-07-29T09:06:35;0.70;;;0.70;;
12445;SDS011;6287;50.984;7.022;2023-07-29T09:09:03;0.93;;;0.93;;
12445;SDS011;6287;50.984;7.022;2023-07-29T09:11:31;0.70;;;0.70;;
12445;SDS011;6287;50.984;7.022;2023-07-29T09:13:58;1.95;;;0.88;;
12445;SDS011;6287;50.984;7.022;2023-07-29T09:16:24;0.80;;;0.80;;
12445;SDS011;6287;50.984;7.022;2023-07-29T09:18:50;2.58;;;1.10;;
12445;SDS011;6287;50.984;7.022;2023-07-29T09:21:23;1.00;;;0.90;;
12445;SDS011;6287;50.984;7.022;2023-07-29T09:23:56;0.90;;;0.90;;
12445;SDS011;6287;50.984;7.022;2023-07-29T09:26:27;0.73;;;0.73;;
12445;SDS011;6287;50.984;7.022;2023-07-29T09:28:54;1.15;;;1.10;;
12445;SDS011;6287;50.984;7.022;2023-07-29T09:31:23;1.35;;;0.90;;
12445;SDS011;6287;50.984;7.022;2023-07-29T09:33:50;0.93;;;0.88;;
12445;SDS011;6287;50.984;7.022;2023-07-29T09:36:25;0.90;;;0.90;;
12445;SDS011;6287;50.984;7.022;2023-07-29T09:38:54;2.10;;;0.60;;
12445;SDS011;6287;50.984;7.022;2023-07-29T09:41:24;0.57;;;0.50;;
12445;SDS011;6287;50.984;7.022;2023-07-29T09:44:01;0.77;;;0.77;;
12445;SDS011;6287;50.984;7.022;2023-07-29T09:46:34;0.70;;;0.70;;
12445;SDS011;6287;50.984;7.022;2023-07-29T09:49:02;0.60;;;0.60;;
12445;SDS011;6287;50.984;7.022;2023-07-29T09:51:31;0.60;;;0.60;;
12445;SDS011;6287;50.984;7.022;2023-07-29T09:54:02;0.57;;;0.57;;
12445;SDS011;6287;50.984;7.022;2023-07-29T09:56:28;0.68;;;0.68;;
12445;SDS011;6287;50.984;7.022;2023-07-29T09:58:55;0.82;;;0.82;;
12445;SDS011;6287;50.984;7.022;2023-07-29T10:01:22;1.13;;;0.68;;
12445;SDS011;6287;50.984;7.022;2023-07-29T10:03:48;2.75;;;0.90;;
12445;SDS011;6287;50.984;7.022;2023-07-29T10:06:16;0.70;;;0.70;;
12445;SDS011;6287;50.984;7.022;2023-07-29T10:08:45;0.70;;;0.70;;
12445;SDS011;6287;50.984;7.022;2023-07-29T10:11:14;0.95;;;0.80;;
12445;SDS011;6287;50.984;7.022;2023-07-29T10:13:45;0.60;;;0.60;;
12445;SDS011;6287;50.984;7.022;2023-07-29T10:16:11;0.70;;;0.70;;
12445;SDS011;6287;50.984;7.022;2023-07-29T10:18:39;1.20;;;1.10;;
12445;SDS011;6287;50.984;7.022;2023-07-29T10:21:08;0.68;;;0.68;;
12445;SDS011;6287;50.984;7.022;2023-07-29T10:23:40;0.80;;;0.80;;
12445;SDS011;6287;50.984;7.022;2023-07-29T10:26:14;1.35;;;1.02;;
12445;SDS011;6287;50.984;7.022;2023-07-29T10:28:46;1.30;;;1.00;;
12445;SDS011;6287;50.984;7.022;2023-07-29T10:31:12;0.90;;;0.90;;
12445;SDS011;6287;50.984;7.022;2023-07-29T10:33:40;1.80;;;0.90;;
12445;SDS011;6287;50.984;7.022;2023-07-29T10:36:11;1.92;;;1.15;;
12445;SDS011;6287;50.984;7.022;2023-07-29T10:38:40;1.23;;;1.13;;
12445;SDS011;6287;50.984;7.022;2023-07-29T10:41:11;1.02;;;0.93;;
12445;SDS011;6287;50.984;7.022;2023-07-29T10:43:39;0.85;;;0.85;;
12445;SDS011;6287;50.984;7.022;2023-07-29T10:48:44;1.17;;;1.08;;
12445;SDS011;6287;50.984;7.022;2023-07-29T10:51:28;0.95;;;0.80;;
12445;SDS011;6287;50.984;7.022;2023-07-29T10:53:59;1.50;;;1.05;;
12445;SDS011;6287;50.984;7.022;2023-07-29T10:56:35;1.75;;;1.20;;
12445;SDS011;6287;50.984;7.022;2023-07-29T11:01:50;1.25;;;1.15;;
12445;SDS011;6287;50.984;7.022;2023-07-29T11:15:22;0.90;;;0.88;;
12445;SDS011;6287;50.984;7.022;2023-07-29T11:17:56;2.13;;;1.13;;
12445;SDS011;6287;50.984;7.022;2023-07-29T11:20:32;1.48;;;1.20;;
12445;SDS011;6287;50.984;7.022;2023-07-29T11:23:01;1.05;;;1.05;;
12445;SDS011;6287;50.984;7.022;2023-07-29T11:25:29;0.93;;;0.93;;
12445;SDS011;6287;50.984;7.022;2023-07-29T11:27:59;0.93;;;0.90;;
12445;SDS011;6287;50.984;7.022;2023-07-29T11:30:29;1.35;;;1.08;;
12445;SDS011;6287;50.984;7.022;2023-07-29T11:32:58;1.58;;;0.98;;
12445;SDS011;6287;50.984;7.022;2023-07-29T11:35:24;1.20;;;1.08;;
12445;SDS011;6287;50.984;7.022;2023-07-29T11:37:53;1.00;;;1.00;;
12445;SDS011;6287;50.984;7.022;2023-07-29T11:40:25;1.48;;;1.10;;
12445;SDS011;6287;50.984;7.022;2023-07-29T11:42:51;1.00;;;1.00;;
12445;SDS011;6287;50.984;7.022;2023-07-29T11:45:20;1.45;;;0.60;;
12445;SDS011;6287;50.984;7.022;2023-07-29T11:47:48;0.95;;;0.95;;
12445;SDS011;6287;50.984;7.022;2023-07-29T11:50:14;1.30;;;0.80;;
12445;SDS011;6287;50.984;7.022;2023-07-29T11:52:41;0.80;;;0.77;;
12445;SDS011;6287;50.984;7.022;2023-07-29T11:55:11;1.02;;;0.70;;
12445;SDS011;6287;50.984;7.022;2023-07-29T11:57:39;0.80;;;0.80;;
12445;SDS011;6287;50.984;7.022;2023-07-29T12:00:11;1.38;;;0.80;;
12445;SDS011;6287;50.984;7.022;2023-07-29T12:02:38;1.42;;;1.00;;
12445;SDS011;6287;50.984;7.022;2023-07-29T12:05:05;0.98;;;0.88;;
12445;SDS011;6287;50.984;7.022;2023-07-29T12:07:33;0.85;;;0.85;;
12445;SDS011;6287;50.984;7.022;2023-07-29T12:09:59;1.13;;;0.80;;
12445;SDS011;6287;50.984;7.022;2023-07-29T12:12:28;1.75;;;0.90;;
12445;SDS011;6287;50.984;7.022;2023-07-29T12:14:54;1.30;;;0.88;;
12445;SDS011;6287;50.984;7.022;2023-07-29T12:17:20;0.80;;;0.80;;
12445;SDS011;6287;50.984;7.022;2023-07-29T12:19:48;1.00;;;0.98;;
12445;SDS011;6287;50.984;7.022;2023-07-29T12:22:17;0.70;;;0.70;;
12445;SDS011;6287;50.984;7.022;2023-07-29T12:24:43;0.77;;;0.77;;
12445;SDS011;6287;50.984;7.022;2023-07-29T12:27:13;0.88;;;0.88;;
12445;SDS011;6287;50.984;7.022;2023-07-29T12:29:42;0.95;;;0.93;;
12445;SDS011;6287;50.984;7.022;2023-07-29T12:32:08;1.10;;;1.00;;
12445;SDS011;6287;50.984;7.022;2023-07-29T12:34:35;1.48;;;0.82;;
12445;SDS011;6287;50.984;7.022;2023-07-29T12:37:04;1.15;;;1.05;;
12445;SDS011;6287;50.984;7.022;2023-07-29T12:39:31;0.88;;;0.88;;
12445;SDS011;6287;50.984;7.022;2023-07-29T12:42:01;0.80;;;0.80;;
12445;SDS011;6287;50.984;7.022;2023-07-29T12:44:32;1.17;;;1.08;;
12445;SDS011;6287;50.984;7.022;2023-07-29T12:47:02;0.75;;;0.75;;
12445;SDS011;6287;50.984;7.022;2023-07-29T12:49:30;1.10;;;1.02;;
12445;SDS011;6287;50.984;7.022;2023-07-29T12:51:58;0.90;;;0.60;;
12445;SDS011;6287;50.984;7.022;2023-07-29T12:54:24;1.20;;;1.10;;
12445;SDS011;6287;50.984;7.022;2023-07-29T12:56:50;1.77;;;1.20;;
12445;SDS011;6287;50.984;7.022;2023-07-29T12:59:18;0.75;;;0.75;;
12445;SDS011;6287;50.984;7.022;2023-07-29T13:01:46;1.42;;;1.00;;
12445;SDS011;6287;50.984;7.022;2023-07-29T13:04:12;1.20;;;1.15;;
12445;SDS011;6287;50.984;7.022;2023-07-29T13:06:37;1.15;;;1.00;;
12445;SDS011;6287;50.984;7.022;2023-07-29T13:09:03;1.23;;;1.10;;
12445;SDS011;6287;50.984;7.022;2023-07-29T13:11:31;1.27;;;0.98;;
12445;SDS011;6287;50.984;7.022;2023-07-29T13:14:04;0.70;;;0.70;;
12445;SDS011;6287;50.984;7.022;2023-07-29T13:16:32;1.48;;;0.90;;
12445;SDS011;6287;50.984;7.022;2023-07-29T13:19:00;0.93;;;0.93;;
12445;SDS011;6287;50.984;7.022;2023-07-29T13:21:26;1.25;;;0.90;;
12445;SDS011;6287;50.984;7.022;2023-07-29T13:23:54;1.33;;;1.05;;
12445;SDS011;6287;50.984;7.022;2023-07-29T13:26:19;1.00;;;1.00;;
12445;SDS011;6287;50.984;7.022;2023-07-29T13:28:47;1.60;;;1.02;;
12445;SDS011;6287;50.984;7.022;2023-07-29T13:31:15;0.82;;;0.82;;
12445;SDS011;6287;50.984;7.022;2023-07-29T13:33:43;1.02;;;0.82;;
12445;SDS011;6287;50.984;7.022;2023-07-29T13:36:09;1.70;;;1.10;;
12445;SDS011;6287;50.984;7.022;2023-07-29T13:38:37;0.82;;;0.82;;
12445;SDS011;6287;50.984;7.022;2023-07-29T13:41:02;1.10;;;1.00;;
12445;SDS011;6287;50.984;7.022;2023-07-29T13:43:28;1.30;;;0.90;;
12445;SDS011;6287;50.984;7.022;2023-07-29T13:45:57;1.10;;;1.00;;
12445;SDS011;6287;50.984;7.022;2023-07-29T13:48:22;1.15;;;1.15;;
12445;SDS011;6287;50.984;7.022;2023-07-29T13:50:48;2.92;;;1.27;;
12445;SDS011;6287;50.984;7.022;2023-07-29T13:53:14;1.85;;;1.20;;
12445;SDS011;6287;50.984;7.022;2023-07-29T13:55:41;2.58;;;2.05;;
12445;SDS011;6287;50.984;7.022;2023-07-29T13:58:12;2.92;;;1.67;;
12445;SDS011;6287;50.984;7.022;2023-07-29T14:00:37;1.73;;;1.40;;
12445;SDS011;6287;50.984;7.022;2023-07-29T14:03:05;2.38;;;1.52;;
12445;SDS011;6287;50.984;7.022;2023-07-29T14:05:31;2.60;;;1.70;;
12445;SDS011;6287;50.984;7.022;2023-07-29T14:07:56;2.55;;;1.73;;
12445;SDS011;6287;50.984;7.022;2023-07-29T14:10:24;2.53;;;2.00;;
12445;SDS011;6287;50.984;7.022;2023-07-29T14:12:55;3.13;;;2.45;;
12445;SDS011;6287;50.984;7.022;2023-07-29T14:15:23;2.67;;;2.10;;
12445;SDS011;6287;50.984;7.022;2023-07-29T14:17:51;2.30;;;2.10;;
12445;SDS011;6287;50.984;7.022;2023-07-29T14:20:19;3.17;;;2.55;;
12445;SDS011;6287;50.984;7.022;2023-07-29T14:22:45;1.98;;;1.83;;
12445;SDS011;6287;50.984;7.022;2023-07-29T14:25:13;2.83;;;2.30;;
12445;SDS011;6287;50.984;7.022;2023-07-29T14:27:42;2.70;;;1.95;;
12445;SDS011;6287;50.984;7.022;2023-07-29T14:30:08;2.45;;;1.85;;
12445;SDS011;6287;50.984;7.022;2023-07-29T14:32:36;1.73;;;1.63;;
12445;SDS011;6287;50.984;7.022;2023-07-29T14:35:04;1.98;;;1.77;;
12445;SDS011;6287;50.984;7.022;2023-07-29T14:37:33;1.30;;;1.13;;
12445;SDS011;6287;50.984;7.022;2023-07-29T14:39:59;1.80;;;1.48;;
12445;SDS011;6287;50.984;7.022;2023-07-29T14:42:27;1.33;;;1.23;;
12445;SDS011;6287;50.984;7.022;2023-07-29T14:44:53;1.38;;;1.10;;
12445;SDS011;6287;50.984;7.022;2023-07-29T14:47:19;1.27;;;1.17;;
12445;SDS011;6287;50.984;7.022;2023-07-29T14:49:45;1.80;;;1.30;;
12445;SDS011;6287;50.984;7.022;2023-07-29T14:52:10;1.58;;;1.08;;
12445;SDS011;6287;50.984;7.022;2023-07-29T14:54:38;1.10;;;1.10;;
12445;SDS011;6287;50.984;7.022;2023-07-29T14:57:06;1.10;;;1.00;;
12445;SDS011;6287;50.984;7.022;2023-07-29T14:59:32;1.50;;;1.40;;
12445;SDS011;6287;50.984;7.022;2023-07-29T15:02:02;1.92;;;1.20;;
12445;SDS011;6287;50.984;7.022;2023-07-29T15:04:30;1.23;;;1.13;;
12445;SDS011;6287;50.984;7.022;2023-07-29T15:06:58;1.90;;;1.67;;
12445;SDS011;6287;50.984;7.022;2023-07-29T15:09:24;1.60;;;1.50;;
12445;SDS011;6287;50.984;7.022;2023-07-29T15:11:51;1.88;;;1.67;;
12445;SDS011;6287;50.984;7.022;2023-07-29T15:14:17;1.75;;;1.60;;
12445;SDS011;6287;50.984;7.022;2023-07-29T15:16:42;1.30;;;1.20;;
12445;SDS011;6287;50.984;7.022;2023-07-29T15:19:08;1.20;;;1.10;;
12445;SDS011;6287;50.984;7.022;2023-07-29T15:21:34;1.38;;;1.00;;
12445;SDS011;6287;50.984;7.022;2023-07-29T15:24:01;1.13;;;1.13;;